sensor_id;sensor_type;location;lat;lon;timestamp;pressure;altitude;pressure_sealevel;temperature;humidity
50065;BME280;64524;47.848;-122.338;2023-04-10T00:42:06;101397.23;;;12.30;100.00
50065;BME280;64524;47.848;-122.338;2023-04-10T01:37:15;101465.48;;;12.40;100.00
50065;BME280;64524;47.848;-122.338;2023-04-10T01:51:50;101456.48;;;12.42;100.00
50065;BME280;64524;47.848;-122.338;2023-04-10T03:10:37;101509.38;;;11.89;100.00
50065;BME280;64524;47.848;-122.338;2023-04-10T03:50:07;101632.39;;;11.54;100.00
50065;BME280;64524;47.848;-122.338;2023-04-10T04:01:10;101669.67;;;11.39;100.00
50065;BME280;64524;47.848;-122.338;2023-04-10T04:08:12;101690.27;;;11.36;100.00
50065;BME280;64524;47.848;-122.338;2023-04-10T04:15:30;101692.43;;;11.32;100.00
50065;BME280;64524;47.848;-122.338;2023-04-10T04:18:02;101705.70;;;11.28;100.00
50065;BME280;64524;47.848;-122.338;2023-04-10T04:20:31;101717.33;;;11.29;100.00
50065;BME280;64524;47.848;-122.338;2023-04-10T04:23:34;101729.63;;;11.29;100.00
50065;BME280;64524;47.848;-122.338;2023-04-10T04:26:02;101738.83;;;11.29;100.00
50065;BME280;64524;47.848;-122.338;2023-04-10T04:28:31;101745.77;;;11.28;100.00
50065;BME280;64524;47.848;-122.338;2023-04-10T04:31:20;101751.52;;;11.30;100.00
50065;BME280;64524;47.848;-122.338;2023-04-10T04:43:43;101778.00;;;11.15;100.00
50065;BME280;64524;47.848;-122.338;2023-04-10T04:46:25;101793.70;;;11.11;100.00
50065;BME280;64524;47.848;-122.338;2023-04-10T04:49:26;101794.66;;;11.08;100.00
50065;BME280;64524;47.848;-122.338;2023-04-10T04:55:40;101820.80;;;10.94;100.00
50065;BME280;64524;47.848;-122.338;2023-04-10T04:58:32;101823.88;;;10.86;100.00
50065;BME280;64524;47.848;-122.338;2023-04-10T05:01:05;101829.89;;;10.79;100.00
50065;BME280;64524;47.848;-122.338;2023-04-10T05:03:35;101843.75;;;10.72;100.00
50065;BME280;64524;47.848;-122.338;2023-04-10T05:12:33;101869.48;;;10.58;100.00
50065;BME280;64524;47.848;-122.338;2023-04-10T05:22:28;101873.24;;;10.50;100.00
50065;BME280;64524;47.848;-122.338;2023-04-10T05:49:34;101921.34;;;10.37;100.00
50065;BME280;64524;47.848;-122.338;2023-04-10T06:03:07;101915.23;;;10.26;100.00
50065;BME280;64524;47.848;-122.338;2023-04-10T06:12:37;101933.55;;;10.20;100.00
50065;BME280;64524;47.848;-122.338;2023-04-10T06:15:37;101935.23;;;10.18;100.00
50065;BME280;64524;47.848;-122.338;2023-04-10T06:18:42;101938.48;;;10.16;100.00
50065;BME280;64524;47.848;-122.338;2023-04-10T06:31:49;101936.79;;;10.07;100.00
50065;BME280;64524;47.848;-122.338;2023-04-10T06:34:59;101947.11;;;10.05;100.00
50065;BME280;64524;47.848;-122.338;2023-04-10T06:38:11;101953.33;;;10.05;100.00
50065;BME280;64524;47.848;-122.338;2023-04-10T06:47:48;101956.66;;;10.01;100.00
50065;BME280;64524;47.848;-122.338;2023-04-10T07:04:47;101952.89;;;9.82;100.00
50065;BME280;64524;47.848;-122.338;2023-04-10T07:11:03;101960.35;;;9.77;100.00
50065;BME280;64524;47.848;-122.338;2023-04-10T07:13:42;101962.23;;;9.76;100.00
50065;BME280;64524;47.848;-122.338;2023-04-10T07:17:02;101961.05;;;9.78;100.00
50065;BME280;64524;47.848;-122.338;2023-04-10T07:26:30;101973.19;;;9.78;100.00
50065;BME280;64524;47.848;-122.338;2023-04-10T07:35:12;101952.80;;;9.79;100.00
50065;BME280;64524;47.848;-122.338;2023-04-10T07:57:25;101971.40;;;9.72;100.00
50065;BME280;64524;47.848;-122.338;2023-04-10T08:00:40;101966.83;;;9.70;100.00
50065;BME280;64524;47.848;-122.338;2023-04-10T08:03:28;101965.95;;;9.69;100.00
50065;BME280;64524;47.848;-122.338;2023-04-10T08:06:30;101962.95;;;9.68;100.00
50065;BME280;64524;47.848;-122.338;2023-04-10T08:10:00;101961.34;;;9.66;100.00
50065;BME280;64524;47.848;-122.338;2023-04-10T08:12:28;101958.66;;;9.64;100.00
50065;BME280;64524;47.848;-122.338;2023-04-10T08:15:23;101952.70;;;9.61;100.00
50065;BME280;64524;47.848;-122.338;2023-04-10T08:18:01;101959.44;;;9.61;100.00
50065;BME280;64524;47.848;-122.338;2023-04-10T08:27:20;101954.84;;;9.63;100.00
50065;BME280;64524;47.848;-122.338;2023-04-10T08:29:59;101956.13;;;9.65;100.00
50065;BME280;64524;47.848;-122.338;2023-04-10T08:33:03;101954.79;;;9.67;100.00
50065;BME280;64524;47.848;-122.338;2023-04-10T08:35:52;101958.84;;;9.69;100.00
50065;BME280;64524;47.848;-122.338;2023-04-10T08:38:54;101955.73;;;9.69;100.00
50065;BME280;64524;47.848;-122.338;2023-04-10T08:41:33;101960.45;;;9.70;100.00
50065;BME280;64524;47.848;-122.338;2023-04-10T08:44:02;101954.10;;;9.72;100.00
50065;BME280;64524;47.848;-122.338;2023-04-10T08:46:39;101949.89;;;9.75;100.00
50065;BME280;64524;47.848;-122.338;2023-04-10T08:49:30;101948.04;;;9.76;100.00
50065;BME280;64524;47.848;-122.338;2023-04-10T08:52:14;101947.09;;;9.79;100.00
50065;BME280;64524;47.848;-122.338;2023-04-10T08:54:47;101944.19;;;9.80;100.00
50065;BME280;64524;47.848;-122.338;2023-04-10T08:57:18;101943.34;;;9.80;100.00
50065;BME280;64524;47.848;-122.338;2023-04-10T09:00:11;101945.56;;;9.80;100.00
50065;BME280;64524;47.848;-122.338;2023-04-10T09:03:10;101938.40;;;9.78;100.00
50065;BME280;64524;47.848;-122.338;2023-04-10T09:06:02;101927.20;;;9.74;100.00
50065;BME280;64524;47.848;-122.338;2023-04-10T09:08:41;101924.80;;;9.70;100.00
50065;BME280;64524;47.848;-122.338;2023-04-10T09:15:22;101918.09;;;9.61;100.00
50065;BME280;64524;47.848;-122.338;2023-04-10T09:25:03;101908.13;;;9.43;100.00
50065;BME280;64524;47.848;-122.338;2023-04-10T09:27:33;101911.98;;;9.40;100.00
50065;BME280;64524;47.848;-122.338;2023-04-10T09:30:05;101910.23;;;9.39;100.00
50065;BME280;64524;47.848;-122.338;2023-04-10T09:32:54;101910.79;;;9.40;100.00
50065;BME280;64524;47.848;-122.338;2023-04-10T09:35:36;101905.00;;;9.43;100.00
50065;BME280;64524;47.848;-122.338;2023-04-10T09:38:14;101896.57;;;9.44;100.00
50065;BME280;64524;47.848;-122.338;2023-04-10T09:40:45;101892.98;;;9.45;100.00
50065;BME280;64524;47.848;-122.338;2023-04-10T09:43:22;101888.48;;;9.46;100.00
50065;BME280;64524;47.848;-122.338;2023-04-10T09:45:53;101884.66;;;9.45;100.00
50065;BME280;64524;47.848;-122.338;2023-04-10T09:48:26;101880.16;;;9.45;100.00
50065;BME280;64524;47.848;-122.338;2023-04-10T09:50:55;101877.02;;;9.44;100.00
50065;BME280;64524;47.848;-122.338;2023-04-10T09:53:28;101877.00;;;9.44;100.00
50065;BME280;64524;47.848;-122.338;2023-04-10T09:55:57;101875.79;;;9.43;100.00
50065;BME280;64524;47.848;-122.338;2023-04-10T09:58:26;101876.98;;;9.43;100.00
50065;BME280;64524;47.848;-122.338;2023-04-10T10:00:55;101877.66;;;9.43;100.00
50065;BME280;64524;47.848;-122.338;2023-04-10T10:03:25;101878.17;;;9.42;100.00
50065;BME280;64524;47.848;-122.338;2023-04-10T10:05:55;101877.27;;;9.41;100.00
50065;BME280;64524;47.848;-122.338;2023-04-10T10:08:24;101881.56;;;9.40;100.00
50065;BME280;64524;47.848;-122.338;2023-04-10T10:11:16;101874.80;;;9.40;100.00
50065;BME280;64524;47.848;-122.338;2023-04-10T10:14:15;101861.92;;;9.37;100.00
50065;BME280;64524;47.848;-122.338;2023-04-10T10:17:17;101853.58;;;9.36;100.00
50065;BME280;64524;47.848;-122.338;2023-04-10T10:20:07;101863.37;;;9.34;100.00
50065;BME280;64524;47.848;-122.338;2023-04-10T10:22:45;101869.57;;;9.33;100.00
50065;BME280;64524;47.848;-122.338;2023-04-10T10:25:14;101871.45;;;9.33;100.00
50065;BME280;64524;47.848;-122.338;2023-04-10T10:27:43;101871.95;;;9.33;100.00
50065;BME280;64524;47.848;-122.338;2023-04-10T10:30:15;101866.80;;;9.33;100.00
50065;BME280;64524;47.848;-122.338;2023-04-10T10:32:59;101869.85;;;9.32;100.00
50065;BME280;64524;47.848;-122.338;2023-04-10T10:35:30;101869.63;;;9.30;100.00
50065;BME280;64524;47.848;-122.338;2023-04-10T10:38:01;101857.61;;;9.28;100.00
50065;BME280;64524;47.848;-122.338;2023-04-10T10:40:59;101847.02;;;9.27;100.00
50065;BME280;64524;47.848;-122.338;2023-04-10T10:49:00;101835.09;;;9.26;100.00
50065;BME280;64524;47.848;-122.338;2023-04-10T10:51:46;101834.20;;;9.26;100.00
50065;BME280;64524;47.848;-122.338;2023-04-10T10:54:34;101827.94;;;9.25;100.00
50065;BME280;64524;47.848;-122.338;2023-04-10T11:00:27;101821.67;;;9.23;100.00
50065;BME280;64524;47.848;-122.338;2023-04-10T11:06:02;101818.28;;;9.25;100.00
50065;BME280;64524;47.848;-122.338;2023-04-10T11:08:39;101818.46;;;9.26;100.00
50065;BME280;64524;47.848;-122.338;2023-04-10T11:11:21;101812.80;;;9.27;100.00
50065;BME280;64524;47.848;-122.338;2023-04-10T11:14:36;101810.73;;;9.27;100.00
50065;BME280;64524;47.848;-122.338;2023-04-10T11:17:04;101810.10;;;9.29;100.00
50065;BME280;64524;47.848;-122.338;2023-04-10T11:19:59;101812.16;;;9.28;100.00
50065;BME280;64524;47.848;-122.338;2023-04-10T11:23:07;101819.79;;;9.29;100.00
50065;BME280;64524;47.848;-122.338;2023-04-10T11:28:35;101811.54;;;9.30;100.00
50065;BME280;64524;47.848;-122.338;2023-04-10T11:31:21;101806.16;;;9.30;100.00
50065;BME280;64524;47.848;-122.338;2023-04-10T11:34:11;101800.64;;;9.30;100.00
50065;BME280;64524;47.848;-122.338;2023-04-10T11:36:45;101795.79;;;9.30;100.00
50065;BME280;64524;47.848;-122.338;2023-04-10T11:39:16;101798.94;;;9.31;100.00
50065;BME280;64524;47.848;-122.338;2023-04-10T11:41:51;101799.20;;;9.33;100.00
50065;BME280;64524;47.848;-122.338;2023-04-10T11:44:34;101796.27;;;9.34;100.00
50065;BME280;64524;47.848;-122.338;2023-04-10T11:47:17;101799.62;;;9.35;100.00
50065;BME280;64524;47.848;-122.338;2023-04-10T11:49:52;101801.04;;;9.37;100.00
50065;BME280;64524;47.848;-122.338;2023-04-10T11:52:46;101798.81;;;9.37;100.00
50065;BME280;64524;47.848;-122.338;2023-04-10T11:55:15;101796.46;;;9.39;100.00
50065;BME280;64524;47.848;-122.338;2023-04-10T11:57:51;101790.30;;;9.41;100.00
50065;BME280;64524;47.848;-122.338;2023-04-10T12:31:36;101753.16;;;9.43;100.00
50065;BME280;64524;47.848;-122.338;2023-04-10T12:35:14;101753.75;;;9.40;100.00
50065;BME280;64524;47.848;-122.338;2023-04-10T12:38:53;101749.60;;;9.39;100.00
50065;BME280;64524;47.848;-122.338;2023-04-10T12:48:24;101748.85;;;9.33;100.00
50065;BME280;64524;47.848;-122.338;2023-04-10T12:50:56;101750.61;;;9.29;100.00
50065;BME280;64524;47.848;-122.338;2023-04-10T12:53:29;101752.80;;;9.27;100.00
50065;BME280;64524;47.848;-122.338;2023-04-10T12:56:43;101745.02;;;9.27;100.00
50065;BME280;64524;47.848;-122.338;2023-04-10T12:59:05;101739.06;;;9.24;100.00
50065;BME280;64524;47.848;-122.338;2023-04-10T13:02:15;101736.66;;;9.19;100.00
50065;BME280;64524;47.848;-122.338;2023-04-10T13:08:19;101725.38;;;9.08;100.00
50065;BME280;64524;47.848;-122.338;2023-04-10T13:14:51;101728.27;;;9.01;100.00
50065;BME280;64524;47.848;-122.338;2023-04-10T13:17:56;101718.10;;;8.97;100.00
50065;BME280;64524;47.848;-122.338;2023-04-10T13:24:17;101714.70;;;8.93;100.00
50065;BME280;64524;47.848;-122.338;2023-04-10T13:26:47;101717.59;;;8.92;100.00
50065;BME280;64524;47.848;-122.338;2023-04-10T13:29:19;101716.54;;;8.92;100.00
50065;BME280;64524;47.848;-122.338;2023-04-10T13:31:48;101716.21;;;8.93;100.00
50065;BME280;64524;47.848;-122.338;2023-04-10T13:34:27;101709.12;;;8.92;100.00
50065;BME280;64524;47.848;-122.338;2023-04-10T13:37:28;101703.42;;;8.92;100.00
50065;BME280;64524;47.848;-122.338;2023-04-10T13:47:19;101693.67;;;8.96;100.00
50065;BME280;64524;47.848;-122.338;2023-04-10T13:53:47;101694.04;;;8.96;100.00
50065;BME280;64524;47.848;-122.338;2023-04-10T13:56:37;101694.63;;;8.98;100.00
50065;BME280;64524;47.848;-122.338;2023-04-10T13:59:30;101696.69;;;8.98;100.00
50065;BME280;64524;47.848;-122.338;2023-04-10T14:02:22;101700.98;;;8.97;100.00
50065;BME280;64524;47.848;-122.338;2023-04-10T14:08:16;101703.93;;;8.97;100.00
50065;BME280;64524;47.848;-122.338;2023-04-10T14:15:16;101709.34;;;8.99;100.00
50065;BME280;64524;47.848;-122.338;2023-04-10T14:18:45;101700.59;;;9.00;100.00
50065;BME280;64524;47.848;-122.338;2023-04-10T14:32:11;101693.81;;;9.05;100.00
50065;BME280;64524;47.848;-122.338;2023-04-10T15:13:12;101749.34;;;9.42;100.00
50065;BME280;64524;47.848;-122.338;2023-04-10T15:15:53;101746.36;;;9.41;100.00
50065;BME280;64524;47.848;-122.338;2023-04-10T15:18:33;101734.92;;;9.40;100.00
50065;BME280;64524;47.848;-122.338;2023-04-10T15:24:52;101727.73;;;9.37;100.00
50065;BME280;64524;47.848;-122.338;2023-04-10T15:27:44;101734.77;;;9.35;100.00
50065;BME280;64524;47.848;-122.338;2023-04-10T15:30:14;101727.45;;;9.34;100.00
50065;BME280;64524;47.848;-122.338;2023-04-10T15:32:56;101716.27;;;9.36;100.00
50065;BME280;64524;47.848;-122.338;2023-04-10T15:35:35;101721.50;;;9.37;100.00
50065;BME280;64524;47.848;-122.338;2023-04-10T15:38:08;101731.44;;;9.39;100.00
50065;BME280;64524;47.848;-122.338;2023-04-10T15:40:54;101728.04;;;9.41;100.00
50065;BME280;64524;47.848;-122.338;2023-04-10T15:53:36;101705.79;;;9.38;100.00
50065;BME280;64524;47.848;-122.338;2023-04-10T16:16:37;101654.09;;;9.43;100.00
50065;BME280;64524;47.848;-122.338;2023-04-10T16:19:50;101653.07;;;9.44;100.00
50065;BME280;64524;47.848;-122.338;2023-04-10T16:22:19;101648.40;;;9.44;100.00
50065;BME280;64524;47.848;-122.338;2023-04-10T16:30:57;101648.20;;;9.37;100.00
50065;BME280;64524;47.848;-122.338;2023-04-10T16:36:45;101642.70;;;9.28;100.00
50065;BME280;64524;47.848;-122.338;2023-04-10T16:39:55;101639.45;;;9.24;100.00
50065;BME280;64524;47.848;-122.338;2023-04-10T16:42:25;101635.05;;;9.20;100.00
50065;BME280;64524;47.848;-122.338;2023-04-10T16:54:45;101634.75;;;9.06;100.00
50065;BME280;64524;47.848;-122.338;2023-04-10T16:57:21;101628.90;;;9.01;100.00
50065;BME280;64524;47.848;-122.338;2023-04-10T17:00:10;101629.14;;;8.98;100.00
50065;BME280;64524;47.848;-122.338;2023-04-10T17:02:44;101631.58;;;8.99;100.00
50065;BME280;64524;47.848;-122.338;2023-04-10T17:05:17;101635.44;;;9.00;100.00
50065;BME280;64524;47.848;-122.338;2023-04-10T17:07:46;101630.98;;;9.02;100.00
50065;BME280;64524;47.848;-122.338;2023-04-10T17:10:17;101632.18;;;9.01;100.00
50065;BME280;64524;47.848;-122.338;2023-04-10T17:12:47;101637.41;;;9.02;100.00
50065;BME280;64524;47.848;-122.338;2023-04-10T17:15:16;101631.10;;;9.06;100.00
50065;BME280;64524;47.848;-122.338;2023-04-10T17:18:05;101627.36;;;9.08;100.00
50065;BME280;64524;47.848;-122.338;2023-04-10T17:20:38;101626.83;;;9.07;100.00
50065;BME280;64524;47.848;-122.338;2023-04-10T17:23:16;101614.77;;;9.09;100.00
50065;BME280;64524;47.848;-122.338;2023-04-10T17:25:50;101599.40;;;9.09;100.00
50065;BME280;64524;47.848;-122.338;2023-04-10T17:28:21;101600.15;;;9.11;100.00
50065;BME280;64524;47.848;-122.338;2023-04-10T17:31:00;101599.99;;;9.11;100.00
50065;BME280;64524;47.848;-122.338;2023-04-10T17:33:34;101594.34;;;9.12;100.00
50065;BME280;64524;47.848;-122.338;2023-04-10T17:36:22;101588.17;;;9.14;100.00
50065;BME280;64524;47.848;-122.338;2023-04-10T17:38:51;101590.80;;;9.15;100.00
50065;BME280;64524;47.848;-122.338;2023-04-10T17:41:23;101591.50;;;9.15;100.00
50065;BME280;64524;47.848;-122.338;2023-04-10T17:44:01;101594.12;;;9.16;100.00
50065;BME280;64524;47.848;-122.338;2023-04-10T17:46:41;101587.05;;;9.17;100.00
50065;BME280;64524;47.848;-122.338;2023-04-10T17:49:30;101579.39;;;9.21;100.00
50065;BME280;64524;47.848;-122.338;2023-04-10T17:52:03;101579.65;;;9.23;100.00
50065;BME280;64524;47.848;-122.338;2023-04-10T17:54:45;101584.59;;;9.27;100.00
50065;BME280;64524;47.848;-122.338;2023-04-10T17:57:45;101588.86;;;9.31;100.00
50065;BME280;64524;47.848;-122.338;2023-04-10T18:00:47;101598.30;;;9.34;100.00
50065;BME280;64524;47.848;-122.338;2023-04-10T18:03:29;101607.04;;;9.37;100.00
50065;BME280;64524;47.848;-122.338;2023-04-10T18:06:04;101605.40;;;9.40;100.00
50065;BME280;64524;47.848;-122.338;2023-04-10T18:09:11;101604.80;;;9.43;100.00
50065;BME280;64524;47.848;-122.338;2023-04-10T18:11:40;101603.66;;;9.46;100.00
50065;BME280;64524;47.848;-122.338;2023-04-10T18:17:18;101609.89;;;9.40;100.00
50065;BME280;64524;47.848;-122.338;2023-04-10T18:20:17;101610.15;;;9.32;100.00
50065;BME280;64524;47.848;-122.338;2023-04-10T18:22:47;101603.08;;;9.21;100.00
50065;BME280;64524;47.848;-122.338;2023-04-10T18:31:53;101605.42;;;8.97;100.00
50065;BME280;64524;47.848;-122.338;2023-04-10T18:41:09;101620.64;;;8.81;100.00
50065;BME280;64524;47.848;-122.338;2023-04-10T18:43:58;101616.03;;;8.78;100.00
50065;BME280;64524;47.848;-122.338;2023-04-10T18:46:46;101613.67;;;8.75;100.00
50065;BME280;64524;47.848;-122.338;2023-04-10T18:52:44;101606.03;;;8.73;100.00
50065;BME280;64524;47.848;-122.338;2023-04-10T19:02:37;101604.36;;;8.75;100.00
50065;BME280;64524;47.848;-122.338;2023-04-10T19:05:06;101606.26;;;8.75;100.00
50065;BME280;64524;47.848;-122.338;2023-04-10T19:08:10;101605.91;;;8.75;100.00
50065;BME280;64524;47.848;-122.338;2023-04-10T19:11:43;101610.22;;;8.75;100.00
50065;BME280;64524;47.848;-122.338;2023-04-10T19:14:10;101608.98;;;8.74;100.00
50065;BME280;64524;47.848;-122.338;2023-04-10T19:19:59;101599.93;;;8.72;100.00
50065;BME280;64524;47.848;-122.338;2023-04-10T19:22:31;101595.75;;;8.71;100.00
50065;BME280;64524;47.848;-122.338;2023-04-10T19:25:06;101587.30;;;8.71;100.00
50065;BME280;64524;47.848;-122.338;2023-04-10T19:27:48;101580.27;;;8.72;100.00
50065;BME280;64524;47.848;-122.338;2023-04-10T19:30:18;101574.38;;;8.72;100.00
50065;BME280;64524;47.848;-122.338;2023-04-10T19:32:47;101571.95;;;8.72;100.00
50065;BME280;64524;47.848;-122.338;2023-04-10T19:35:40;101567.45;;;8.72;100.00
50065;BME280;64524;47.848;-122.338;2023-04-10T19:41:18;101561.81;;;8.73;100.00
50065;BME280;64524;47.848;-122.338;2023-04-10T19:43:47;101559.41;;;8.74;100.00
50065;BME280;64524;47.848;-122.338;2023-04-10T19:46:27;101559.59;;;8.74;100.00
50065;BME280;64524;47.848;-122.338;2023-04-10T19:49:37;101556.20;;;8.76;100.00
50065;BME280;64524;47.848;-122.338;2023-04-10T19:59:36;101542.67;;;8.80;100.00
50065;BME280;64524;47.848;-122.338;2023-04-10T20:02:38;101544.48;;;8.82;100.00
50065;BME280;64524;47.848;-122.338;2023-04-10T20:05:29;101547.34;;;8.85;100.00
50065;BME280;64524;47.848;-122.338;2023-04-10T20:18:04;101538.90;;;8.97;100.00
50065;BME280;64524;47.848;-122.338;2023-04-10T20:20:36;101534.77;;;8.98;100.00
50065;BME280;64524;47.848;-122.338;2023-04-10T20:26:26;101528.91;;;8.98;100.00
50065;BME280;64524;47.848;-122.338;2023-04-10T20:29:06;101524.95;;;8.98;100.00
50065;BME280;64524;47.848;-122.338;2023-04-10T20:31:35;101520.94;;;8.97;100.00
50065;BME280;64524;47.848;-122.338;2023-04-10T20:34:04;101517.14;;;8.97;100.00
50065;BME280;64524;47.848;-122.338;2023-04-10T20:36:34;101520.42;;;8.98;100.00
50065;BME280;64524;47.848;-122.338;2023-04-10T20:39:03;101515.41;;;8.97;100.00
50065;BME280;64524;47.848;-122.338;2023-04-10T20:41:53;101509.10;;;8.95;100.00
50065;BME280;64524;47.848;-122.338;2023-04-10T20:44:22;101502.08;;;8.91;100.00
50065;BME280;64524;47.848;-122.338;2023-04-10T20:46:57;101498.39;;;8.89;100.00
50065;BME280;64524;47.848;-122.338;2023-04-10T20:49:26;101489.33;;;8.87;100.00
50065;BME280;64524;47.848;-122.338;2023-04-10T20:51:55;101491.35;;;8.85;100.00
50065;BME280;64524;47.848;-122.338;2023-04-10T20:54:24;101492.72;;;8.85;100.00
50065;BME280;64524;47.848;-122.338;2023-04-10T20:57:16;101491.23;;;8.86;100.00
50065;BME280;64524;47.848;-122.338;2023-04-10T20:59:46;101478.45;;;8.87;100.00
50065;BME280;64524;47.848;-122.338;2023-04-10T21:02:15;101476.24;;;8.88;100.00
50065;BME280;64524;47.848;-122.338;2023-04-10T21:04:45;101479.78;;;8.91;100.00
50065;BME280;64524;47.848;-122.338;2023-04-10T21:07:14;101474.86;;;8.94;100.00
50065;BME280;64524;47.848;-122.338;2023-04-10T21:09:53;101474.70;;;8.94;100.00
50065;BME280;64524;47.848;-122.338;2023-04-10T21:12:23;101469.70;;;8.95;100.00
50065;BME280;64524;47.848;-122.338;2023-04-10T21:17:55;101465.91;;;8.94;100.00
50065;BME280;64524;47.848;-122.338;2023-04-10T21:20:25;101460.86;;;8.93;100.00
50065;BME280;64524;47.848;-122.338;2023-04-10T21:22:55;101455.03;;;8.95;100.00
50065;BME280;64524;47.848;-122.338;2023-04-10T21:26:05;101440.21;;;8.96;100.00
50065;BME280;64524;47.848;-122.338;2023-04-10T21:28:45;101439.38;;;8.97;100.00
50065;BME280;64524;47.848;-122.338;2023-04-10T21:34:04;101444.35;;;9.01;100.00
50065;BME280;64524;47.848;-122.338;2023-04-10T21:36:37;101442.55;;;9.06;100.00
50065;BME280;64524;47.848;-122.338;2023-04-10T21:39:09;101444.91;;;9.09;100.00
50065;BME280;64524;47.848;-122.338;2023-04-10T21:44:59;101438.85;;;9.15;100.00
50065;BME280;64524;47.848;-122.338;2023-04-10T21:48:18;101444.10;;;9.17;100.00
50065;BME280;64524;47.848;-122.338;2023-04-10T21:51:11;101442.24;;;9.19;100.00
50065;BME280;64524;47.848;-122.338;2023-04-10T21:54:08;101443.65;;;9.19;100.00
50065;BME280;64524;47.848;-122.338;2023-04-10T22:00:07;101449.45;;;9.23;100.00
50065;BME280;64524;47.848;-122.338;2023-04-10T22:02:57;101452.45;;;9.25;100.00
50065;BME280;64524;47.848;-122.338;2023-04-10T22:05:26;101450.91;;;9.25;100.00
50065;BME280;64524;47.848;-122.338;2023-04-10T22:08:36;101450.43;;;9.27;100.00
50065;BME280;64524;47.848;-122.338;2023-04-10T22:11:13;101449.59;;;9.28;100.00
50065;BME280;64524;47.848;-122.338;2023-04-10T22:16:45;101446.45;;;9.27;100.00
50065;BME280;64524;47.848;-122.338;2023-04-10T22:19:18;101447.81;;;9.26;100.00
50065;BME280;64524;47.848;-122.338;2023-04-10T22:21:50;101443.64;;;9.25;100.00
50065;BME280;64524;47.848;-122.338;2023-04-10T22:24:22;101441.23;;;9.26;100.00
50065;BME280;64524;47.848;-122.338;2023-04-10T22:26:54;101437.45;;;9.26;100.00
50065;BME280;64524;47.848;-122.338;2023-04-10T22:29:24;101435.02;;;9.26;100.00
50065;BME280;64524;47.848;-122.338;2023-04-10T22:32:04;101435.52;;;9.25;100.00
50065;BME280;64524;47.848;-122.338;2023-04-10T22:34:49;101433.57;;;9.23;100.00
50065;BME280;64524;47.848;-122.338;2023-04-10T22:37:18;101435.41;;;9.22;100.00
50065;BME280;64524;47.848;-122.338;2023-04-10T22:39:58;101435.23;;;9.22;100.00
50065;BME280;64524;47.848;-122.338;2023-04-10T22:42:32;101432.53;;;9.23;100.00
50065;BME280;64524;47.848;-122.338;2023-04-10T22:45:02;101419.75;;;9.24;100.00
50065;BME280;64524;47.848;-122.338;2023-04-10T22:47:34;101413.67;;;9.23;100.00
50065;BME280;64524;47.848;-122.338;2023-04-10T22:50:16;101413.52;;;9.24;100.00
50065;BME280;64524;47.848;-122.338;2023-04-10T22:52:52;101407.11;;;9.23;100.00
50065;BME280;64524;47.848;-122.338;2023-04-10T22:55:24;101400.61;;;9.26;100.00
50065;BME280;64524;47.848;-122.338;2023-04-10T22:57:56;101397.83;;;9.26;100.00
50065;BME280;64524;47.848;-122.338;2023-04-10T23:00:26;101399.23;;;9.26;100.00
50065;BME280;64524;47.848;-122.338;2023-04-10T23:06:12;101404.11;;;9.28;100.00
50065;BME280;64524;47.848;-122.338;2023-04-10T23:09:01;101401.89;;;9.28;100.00
50065;BME280;64524;47.848;-122.338;2023-04-10T23:11:36;101398.13;;;9.30;100.00
50065;BME280;64524;47.848;-122.338;2023-04-10T23:14:34;101387.31;;;9.33;100.00
50065;BME280;64524;47.848;-122.338;2023-04-10T23:17:16;101381.97;;;9.33;100.00
50065;BME280;64524;47.848;-122.338;2023-04-10T23:20:26;101376.06;;;9.32;100.00
50065;BME280;64524;47.848;-122.338;2023-04-10T23:26:57;101366.33;;;9.31;100.00
50065;BME280;64524;47.848;-122.338;2023-04-10T23:35:33;101362.95;;;9.27;100.00
50065;BME280;64524;47.848;-122.338;2023-04-10T23:38:44;101357.79;;;9.28;100.00
50065;BME280;64524;47.848;-122.338;2023-04-10T23:44:57;101347.16;;;9.25;100.00
50065;BME280;64524;47.848;-122.338;2023-04-10T23:47:47;101342.03;;;9.26;100.00
50065;BME280;64524;47.848;-122.338;2023-04-10T23:50:28;101337.59;;;9.29;100.00
50065;BME280;64524;47.848;-122.338;2023-04-10T23:53:30;101330.66;;;9.28;100.00
50065;BME280;64524;47.848;-122.338;2023-04-10T23:56:19;101330.50;;;9.29;100.00
50065;BME280;64524;47.848;-122.338;2023-04-10T23:59:09;101334.36;;;9.30;100.00
